createdAt,value
2023-11-23T00:03:23.962Z,71.23
2023-11-23T00:06:48.095Z,70.80
2023-11-23T00:10:12.077Z,71.57
2023-11-23T00:13:33.763Z,72.17
2023-11-23T00:16:58.010Z,72.35
2023-11-23T00:20:20.177Z,72.60
2023-11-23T00:23:44.059Z,71.97
2023-11-23T00:27:06.023Z,71.89
2023-11-23T00:30:27.947Z,71.51
2023-11-23T00:33:50.157Z,71.66
2023-11-23T00:37:11.947Z,71.81
2023-11-23T00:40:33.822Z,71.39
2023-11-23T00:43:55.513Z,71.63
2023-11-23T00:47:17.180Z,72.49
2023-11-23T00:50:38.888Z,74.24
2023-11-23T00:54:00.727Z,73.61
2023-11-23T00:57:22.412Z,72.68
2023-11-23T01:00:44.538Z,72.52
2023-11-23T01:04:06.706Z,73.64
2023-11-23T01:07:30.860Z,73.46
2023-11-23T01:10:54.665Z,73.48
2023-11-23T01:14:18.820Z,72.67
2023-11-23T01:17:40.686Z,72.60
2023-11-23T01:21:04.905Z,71.61
2023-11-23T01:24:26.607Z,72.27
2023-11-23T01:27:50.874Z,71.48
2023-11-23T01:31:15.014Z,73.97
2023-11-23T01:34:39.104Z,73.87
2023-11-23T01:38:02.332Z,73.63
2023-11-23T01:41:26.394Z,72.90
2023-11-23T01:44:50.706Z,72.12
2023-11-23T01:48:16.194Z,72.17
2023-11-23T01:51:39.945Z,71.86
2023-11-23T01:55:04.621Z,72.00
2023-11-23T01:58:26.333Z,72.14
2023-11-23T02:01:48.282Z,72.55
2023-11-23T02:05:12.718Z,72.30
2023-11-23T02:08:35.359Z,72.79
2023-11-23T02:12:02.691Z,72.71
2023-11-23T02:15:24.466Z,72.56
2023-11-23T02:18:46.230Z,72.27
2023-11-23T02:22:09.947Z,71.77
2023-11-23T02:25:31.589Z,72.34
2023-11-23T02:28:53.284Z,71.86
2023-11-23T02:32:14.980Z,71.82
2023-11-23T02:35:38.844Z,72.08
2023-11-23T02:39:01.072Z,71.13
2023-11-23T02:42:22.792Z,70.65
2023-11-23T02:45:44.815Z,70.50
2023-11-23T02:49:07.609Z,69.71
2023-11-23T02:52:29.282Z,70.00
2023-11-23T02:55:50.847Z,69.70
2023-11-23T02:59:15.036Z,70.78
2023-11-23T03:02:36.849Z,71.02
2023-11-23T03:06:01.958Z,71.57
2023-11-23T03:09:24.643Z,71.30
2023-11-23T03:12:46.572Z,71.44
2023-11-23T03:16:08.478Z,71.16
2023-11-23T03:19:32.394Z,71.33
2023-11-23T03:22:54.381Z,70.86
2023-11-23T03:26:16.061Z,70.74
2023-11-23T03:29:40.103Z,70.27
2023-11-23T03:33:04.205Z,69.93
2023-11-23T03:36:28.802Z,69.84
2023-11-23T03:39:50.387Z,70.18
2023-11-23T03:43:12.073Z,70.80
2023-11-23T03:46:33.798Z,71.42
2023-11-23T03:49:57.663Z,71.64
2023-11-23T03:53:19.352Z,71.08
2023-11-23T03:56:43.252Z,71.54
2023-11-23T04:00:08.725Z,72.09
2023-11-23T04:03:30.383Z,72.51
2023-11-23T04:06:52.057Z,72.06
2023-11-23T04:10:14.541Z,71.61
2023-11-23T04:13:38.640Z,72.36
2023-11-23T04:17:02.453Z,72.44
2023-11-23T04:20:24.146Z,73.21
2023-11-23T04:23:45.865Z,72.51
2023-11-23T04:27:08.294Z,72.08
2023-11-23T04:30:32.386Z,71.31
2023-11-23T04:33:56.504Z,71.69
2023-11-23T04:37:25.327Z,71.87
2023-11-23T04:40:47.226Z,71.58
2023-11-23T04:44:13.334Z,71.26
2023-11-23T04:47:39.935Z,72.85
2023-11-23T04:51:04.029Z,72.59
2023-11-23T04:54:28.116Z,72.82
2023-11-23T04:57:54.796Z,72.55
2023-11-23T05:01:16.666Z,72.23
2023-11-23T05:04:40.616Z,72.04
2023-11-23T05:08:02.402Z,71.88
2023-11-23T05:11:24.730Z,71.60
2023-11-23T05:14:46.755Z,71.18
2023-11-23T05:18:08.566Z,70.93
2023-11-23T05:21:30.406Z,70.30
2023-11-23T05:24:54.608Z,70.75
2023-11-23T05:28:16.347Z,71.13
2023-11-23T05:31:38.125Z,70.63
2023-11-23T05:35:02.445Z,71.27
2023-11-23T05:38:24.071Z,71.12
2023-11-23T05:41:48.227Z,71.46
2023-11-23T05:45:12.520Z,70.36
2023-11-23T05:48:34.243Z,70.07
2023-11-23T05:52:00.596Z,69.92
2023-11-23T05:55:22.286Z,69.45
2023-11-23T05:58:46.207Z,69.49
2023-11-23T06:02:08.943Z,69.75
2023-11-23T06:05:30.715Z,69.59
2023-11-23T06:08:54.888Z,70.70
2023-11-23T06:12:16.532Z,71.20
2023-11-23T06:15:40.906Z,71.12
2023-11-23T06:19:05.301Z,71.30
2023-11-23T06:22:27.100Z,70.44
2023-11-23T06:25:53.487Z,70.76
2023-11-23T06:29:19.889Z,70.98
2023-11-23T06:32:44.000Z,70.47
2023-11-23T06:36:07.224Z,69.84
2023-11-23T06:39:28.950Z,70.10
2023-11-23T06:42:50.673Z,69.60
2023-11-23T06:46:16.850Z,68.86
2023-11-23T06:49:43.051Z,69.28
2023-11-23T06:53:04.689Z,68.67
2023-11-23T06:56:28.387Z,68.05
2023-11-23T06:59:50.038Z,69.83
2023-11-23T07:03:12.101Z,69.58
2023-11-23T07:06:33.949Z,68.49
2023-11-23T07:09:55.961Z,69.91
2023-11-23T07:13:19.741Z,69.80
2023-11-23T07:16:44.040Z,69.50
2023-11-23T07:20:19.930Z,68.66
2023-11-23T07:23:42.075Z,68.24
2023-11-23T07:27:04.024Z,68.23
2023-11-23T07:30:28.229Z,68.82
2023-11-23T07:33:52.467Z,68.82
2023-11-23T07:37:16.987Z,69.19
2023-11-23T07:40:38.590Z,68.25
2023-11-23T07:44:02.438Z,66.75
2023-11-23T07:47:24.080Z,66.59
2023-11-23T07:50:48.031Z,65.70
2023-11-23T07:54:10.651Z,66.44
2023-11-23T07:57:34.825Z,66.24
2023-11-23T08:00:56.581Z,65.93
2023-11-23T08:04:20.384Z,66.60
2023-11-23T08:07:44.259Z,66.62
2023-11-23T08:11:09.447Z,66.61
2023-11-23T08:14:31.175Z,66.77
2023-11-23T08:17:58.767Z,66.80
2023-11-23T08:21:26.830Z,65.66
2023-11-23T08:24:51.545Z,63.54
2023-11-23T08:28:13.292Z,60.30
2023-11-23T08:31:47.053Z,58.70
2023-11-23T08:35:11.948Z,58.90
2023-11-23T08:38:36.096Z,56.87
2023-11-23T08:41:57.759Z,56.04
2023-11-23T08:45:19.910Z,54.91
2023-11-23T08:48:42.823Z,55.09
2023-11-23T08:52:04.802Z,55.18
2023-11-23T08:55:29.580Z,58.62
2023-11-23T08:58:51.795Z,59.74
2023-11-23T09:02:20.422Z,60.66
2023-11-23T09:05:43.507Z,62.22
2023-11-23T09:09:05.299Z,62.11
2023-11-23T09:12:33.461Z,60.49
2023-11-23T09:15:55.566Z,60.92
2023-11-23T09:19:18.183Z,60.04
2023-11-23T09:22:40.285Z,59.22
2023-11-23T09:26:08.802Z,59.99
2023-11-23T09:29:32.892Z,58.72
2023-11-23T09:32:55.099Z,58.06
2023-11-23T09:36:16.875Z,57.73
2023-11-23T09:39:39.929Z,57.76
2023-11-23T09:43:02.385Z,57.52
2023-11-23T09:46:24.453Z,57.39
2023-11-23T09:49:46.136Z,58.94
2023-11-23T09:53:09.353Z,73.16
2023-11-23T09:56:33.110Z,76.22
2023-11-23T09:59:54.984Z,69.88
2023-11-23T10:03:18.764Z,58.61
2023-11-23T10:06:43.938Z,58.74
2023-11-23T10:10:06.735Z,59.54
2023-11-23T10:13:31.371Z,59.62
2023-11-23T10:16:55.149Z,60.89
2023-11-23T10:20:17.146Z,61.19
2023-11-23T10:23:41.425Z,61.47
2023-11-23T10:27:04.545Z,60.58
2023-11-23T10:30:27.400Z,60.96
2023-11-23T10:33:51.818Z,59.45
2023-11-23T10:37:17.728Z,58.21
2023-11-23T10:40:39.912Z,54.95
2023-11-23T10:44:04.527Z,49.60
2023-11-23T10:47:29.461Z,47.28
2023-11-23T10:50:57.805Z,50.41
2023-11-23T10:54:20.310Z,45.75
2023-11-23T10:57:47.500Z,47.07
2023-11-23T11:01:12.363Z,47.89
2023-11-23T11:04:36.448Z,47.38
2023-11-23T11:08:01.699Z,47.84
2023-11-23T11:11:27.800Z,47.75
2023-11-23T11:14:55.404Z,45.99
2023-11-23T11:18:27.177Z,45.71
2023-11-23T11:21:59.274Z,44.78
2023-11-23T11:25:22.938Z,43.43
2023-11-23T11:29:01.985Z,44.29
2023-11-23T11:32:33.497Z,44.44
2023-11-23T11:35:56.484Z,45.21
2023-11-23T11:39:19.055Z,44.10
2023-11-23T11:42:43.530Z,43.73
2023-11-23T11:46:09.744Z,44.68
2023-11-23T11:49:31.742Z,42.71
2023-11-23T11:52:53.506Z,41.48
2023-11-23T11:56:15.241Z,41.90
2023-11-23T11:59:37.924Z,40.28
2023-11-23T12:02:59.676Z,40.13
2023-11-23T12:06:23.995Z,40.30
2023-11-23T12:09:53.801Z,41.83
2023-11-23T12:13:24.134Z,41.22
2023-11-23T12:16:48.546Z,41.89
2023-11-23T12:20:11.137Z,40.76
2023-11-23T12:23:43.102Z,40.44
2023-11-23T12:27:04.882Z,43.70
2023-11-23T12:30:30.941Z,43.31
2023-11-23T12:33:52.777Z,44.01
2023-11-23T12:37:15.694Z,42.65
2023-11-23T12:40:37.887Z,43.25
2023-11-23T12:43:59.896Z,41.99
2023-11-23T12:47:22.480Z,42.35
2023-11-23T12:50:46.625Z,42.68
2023-11-23T12:54:11.568Z,43.84
2023-11-23T12:57:35.902Z,45.15
2023-11-23T13:01:00.004Z,46.84
2023-11-23T13:04:26.045Z,51.31
2023-11-23T13:07:50.516Z,53.01
2023-11-23T13:11:12.253Z,56.89
2023-11-23T13:14:34.240Z,55.48
2023-11-23T13:17:56.152Z,59.58
2023-11-23T13:21:19.014Z,54.36
2023-11-23T13:24:43.956Z,55.02
2023-11-23T13:28:06.202Z,55.11
2023-11-23T13:31:28.931Z,54.96
2023-11-23T13:34:53.357Z,55.23
2023-11-23T13:38:15.062Z,56.06
2023-11-23T13:41:36.738Z,56.85
2023-11-23T13:45:06.261Z,56.42
2023-11-23T13:48:32.584Z,59.78
2023-11-23T13:51:54.566Z,59.70
2023-11-23T13:55:16.442Z,64.27
2023-11-23T13:58:38.703Z,64.57
2023-11-23T14:02:03.958Z,62.75
2023-11-23T14:05:26.061Z,64.63
2023-11-23T14:08:48.307Z,63.24
2023-11-23T14:12:13.864Z,61.89
2023-11-23T14:15:35.570Z,62.17
2023-11-23T14:18:57.373Z,62.73
2023-11-23T14:22:19.396Z,63.68
2023-11-23T14:25:42.381Z,64.41
2023-11-23T14:29:04.269Z,64.54
2023-11-23T14:32:25.892Z,65.49
2023-11-23T14:35:52.186Z,65.43
2023-11-23T14:39:17.377Z,65.76
2023-11-23T14:42:44.209Z,66.06
2023-11-23T14:46:19.559Z,65.87
2023-11-23T14:49:42.048Z,66.23
2023-11-23T14:53:06.715Z,69.51
2023-11-23T14:56:28.348Z,71.72
2023-11-23T14:59:49.995Z,69.20
2023-11-23T15:03:15.008Z,70.40
2023-11-23T15:06:37.581Z,68.87
2023-11-23T15:09:59.456Z,68.74
2023-11-23T15:13:26.229Z,65.88
2023-11-23T15:16:56.803Z,64.22
2023-11-23T15:20:20.260Z,64.67
2023-11-23T15:23:42.116Z,65.31
2023-11-23T15:27:08.789Z,66.78
2023-11-23T15:30:35.873Z,66.79
2023-11-23T15:33:57.627Z,67.71
2023-11-23T15:37:24.675Z,67.99
2023-11-23T15:40:46.553Z,72.83
2023-11-23T15:44:11.473Z,70.54
2023-11-23T15:47:36.686Z,71.17
2023-11-23T15:50:58.426Z,72.45
2023-11-23T15:54:20.472Z,72.58
2023-11-23T15:57:44.458Z,71.07
2023-11-23T16:01:10.066Z,69.66
2023-11-23T16:04:34.088Z,72.88
2023-11-23T16:08:00.637Z,71.31
2023-11-23T16:11:24.481Z,66.45
2023-11-23T16:14:46.135Z,67.12
2023-11-23T16:18:14.853Z,67.45
2023-11-23T16:21:38.840Z,67.98
2023-11-23T16:25:00.586Z,69.28
2023-11-23T16:28:22.676Z,69.60
2023-11-23T16:31:47.401Z,68.37
2023-11-23T16:35:12.124Z,73.98
2023-11-23T16:38:33.997Z,69.51
2023-11-23T16:41:55.979Z,69.66
2023-11-23T16:45:17.631Z,69.72
2023-11-23T16:48:39.407Z,69.80
2023-11-23T16:52:01.105Z,69.49
2023-11-23T16:55:23.581Z,70.56
2023-11-23T16:58:45.455Z,70.30
2023-11-23T17:02:09.960Z,70.86
2023-11-23T17:05:32.092Z,70.39
2023-11-23T17:08:56.644Z,70.86
2023-11-23T17:12:20.863Z,69.98
2023-11-23T17:15:44.211Z,70.88
2023-11-23T17:19:08.362Z,70.48
2023-11-23T17:22:33.379Z,70.92
2023-11-23T17:25:58.681Z,71.63
2023-11-23T17:29:20.538Z,71.38
2023-11-23T17:32:47.616Z,71.37
2023-11-23T17:36:10.003Z,71.52
2023-11-23T17:39:35.012Z,71.38
2023-11-23T17:42:56.766Z,71.60
2023-11-23T17:46:23.660Z,72.32
2023-11-23T17:49:46.484Z,72.49
2023-11-23T17:53:10.929Z,71.94
2023-11-23T17:56:35.808Z,72.08
2023-11-23T17:59:57.887Z,72.20
2023-11-23T18:03:21.783Z,72.46
2023-11-23T18:06:43.821Z,72.23
2023-11-23T18:10:12.162Z,72.45
2023-11-23T18:13:38.345Z,72.74
2023-11-23T18:17:02.504Z,72.76
2023-11-23T18:20:25.070Z,72.89
2023-11-23T18:23:46.789Z,72.96
2023-11-23T18:27:12.639Z,72.78
2023-11-23T18:30:35.533Z,72.99
2023-11-23T18:34:01.213Z,72.97
2023-11-23T18:37:23.086Z,79.58
2023-11-23T18:40:47.641Z,79.69
2023-11-23T18:44:11.952Z,78.46
2023-11-23T18:47:35.979Z,77.24
2023-11-23T18:51:00.108Z,76.26
2023-11-23T18:54:21.713Z,69.65
2023-11-23T18:57:43.921Z,69.27
2023-11-23T19:01:12.164Z,69.73
2023-11-23T19:04:34.019Z,70.33
2023-11-23T19:07:55.851Z,78.97
2023-11-23T19:11:19.370Z,77.32
2023-11-23T19:14:41.135Z,76.78
2023-11-23T19:18:05.373Z,76.67
2023-11-23T19:21:31.104Z,75.30
2023-11-23T19:24:53.344Z,74.98
2023-11-23T19:28:15.261Z,68.26
2023-11-23T19:31:37.499Z,68.37
2023-11-23T19:34:59.445Z,69.37
2023-11-23T19:38:21.803Z,70.02
2023-11-23T19:41:43.748Z,70.81
2023-11-23T19:45:08.122Z,71.60
2023-11-23T19:48:30.217Z,71.81
2023-11-23T19:51:52.385Z,72.05
2023-11-23T19:55:19.154Z,78.43
2023-11-23T19:58:43.203Z,78.61
2023-11-23T20:02:07.632Z,77.94
2023-11-23T20:05:29.389Z,77.12
2023-11-23T20:08:51.130Z,75.66
2023-11-23T20:12:15.390Z,75.29
2023-11-23T20:15:41.904Z,75.95
2023-11-23T20:19:05.080Z,75.11
2023-11-23T20:22:29.779Z,73.69
2023-11-23T20:25:51.514Z,72.28
2023-11-23T20:29:15.287Z,67.34
2023-11-23T20:32:36.986Z,68.69
2023-11-23T20:36:01.032Z,69.60
2023-11-23T20:39:24.302Z,70.67
2023-11-23T20:42:46.283Z,71.63
2023-11-23T20:46:09.869Z,72.23
2023-11-23T20:49:33.808Z,72.25
2023-11-23T20:52:55.607Z,72.83
2023-11-23T20:56:17.583Z,72.59
2023-11-23T20:59:44.805Z,72.56
2023-11-23T21:03:06.996Z,72.83
2023-11-23T21:06:30.412Z,78.58
2023-11-23T21:09:55.887Z,81.13
2023-11-23T21:13:17.613Z,77.33
2023-11-23T21:16:39.248Z,77.02
2023-11-23T21:20:00.977Z,72.65
2023-11-23T21:23:22.799Z,77.05
2023-11-23T21:26:47.506Z,70.91
2023-11-23T21:30:10.197Z,70.59
2023-11-23T21:33:32.009Z,70.67
2023-11-23T21:36:53.707Z,71.55
2023-11-23T21:40:16.066Z,71.76
2023-11-23T21:43:40.163Z,72.04
2023-11-23T21:47:04.317Z,72.17
2023-11-23T21:50:29.505Z,72.72
2023-11-23T21:53:51.417Z,73.23
2023-11-23T21:57:13.136Z,73.19
2023-11-23T22:00:37.596Z,73.57
2023-11-23T22:04:01.442Z,73.61
2023-11-23T22:07:24.258Z,73.95
2023-11-23T22:10:45.878Z,74.53
2023-11-23T22:14:07.500Z,74.94
2023-11-23T22:17:31.793Z,75.61
2023-11-23T22:20:58.280Z,75.54
2023-11-23T22:24:20.731Z,75.97
2023-11-23T22:27:42.681Z,75.80
2023-11-23T22:31:11.117Z,75.26
2023-11-23T22:34:35.670Z,75.21
2023-11-23T22:37:59.998Z,75.62
2023-11-23T22:41:21.958Z,75.12
2023-11-23T22:44:43.873Z,75.28
2023-11-23T22:48:05.843Z,75.28
2023-11-23T22:51:27.624Z,75.25
2023-11-23T22:54:49.468Z,75.48
2023-11-23T22:58:15.924Z,76.06
2023-11-23T23:01:38.353Z,76.26
2023-11-23T23:05:00.171Z,76.24
2023-11-23T23:08:24.147Z,76.02
2023-11-23T23:11:45.744Z,75.95
2023-11-23T23:15:07.905Z,76.29
2023-11-23T23:18:32.663Z,75.90
2023-11-23T23:21:54.517Z,75.92
2023-11-23T23:25:16.442Z,75.91
2023-11-23T23:28:40.701Z,75.75
2023-11-23T23:32:04.780Z,76.02
2023-11-23T23:35:26.835Z,76.24
2023-11-23T23:38:48.431Z,76.29
2023-11-23T23:42:10.162Z,76.45
2023-11-23T23:45:32.699Z,76.98
2023-11-23T23:48:56.672Z,76.68
2023-11-23T23:52:20.857Z,77.24
2023-11-23T23:55:42.999Z,77.40
2023-11-23T23:59:07.196Z,77.87
